Noi Bai International Airport
VVNB : now visible

Airfield :











YOU CAN JOIN US ON...

 
LOGIN :

Register | Disclaimer

   EN    FR    IT 

 









Legend :    VFR   Marginal VFR   IFR   Intensive IFR   Very Intensive IFR
Visi :
Ceiling :
>= 8 km
>= 3000ft
5 to 8 km
1000 to 3000 ft
1500m to 5 km
500 to 1000 ft
800 to 1500m
200 to 500 ft
< 800m
< 200 ft
Symbols :   Thunderstorms  Fog  Heavy snow  Heavy precipitations  Wind > 20 kt






- Airport Elevation : 39 ft
- IATA code : HAN


VVNB - Noi Bai International

CURRENT METAR :
  • 290330Z VRB04KT 9999 SCT020 31/24 Q1009 NOSIG

EXPIRED METARs :
  • 290300Z 02004KT 320V090 9999 FEW016 SCT020 30/24 Q1009 NOSIG
  • 290230Z 07005KT 030V110 9999 FEW015 BKN019 30/24 Q1009 NOSIG
  • 290200Z 08005KT 030V110 9000 FEW011 SCT014 30/25 Q1009 NOSIG
  • 290130Z 06005KT 350V090 5000 BR FEW010 SCT012 29/24 Q1009 BECMG FM0215 6000 NSW
  • 290100Z 03006KT 350V060 3600 BR SCT006 BKN018 27/24 Q1009 BECMG FM0215 6000 NSW
  • 290030Z 05005KT 2700 BR SCT005 BKN010 27/25 Q1009 NOSIG

TAF TAF VVNB
Valid from the 29 at 00:00 until the 30 at 00:00 UTC


282300Z 2900/2924 05006KT 5000 BR SCT020 BKN040
TEMPO 2903/2906 2800 -RA BR BKN010 BKN040
BECMG 2908/2909 7000 NSW
BECMG 2918/2919 4000 BR
VVVV FIR / Asia



MET'MAP, your aeronautical weather chart ! - Copyright ORBIFLY December 2007 - Disclaimer

ORBIFLY MET'MAP TEAM :

Programming & Development : Alexandra Zaïnal
Concept & original design : Baudouin d'Aumeries
Assistance for programming : Marc-Olivier Méhu
Technical & hardware support : Manuel Goepfert

Contact : metmap@orbifly.com




SOURCES & CREDITS :

   NOAA       Earth
Advisory